createdAt,value
2023-05-23T00:00:07.674Z,496.7857
2023-05-23T00:01:15.562Z,502.0714
2023-05-23T00:02:23.694Z,499.2143
2023-05-23T00:03:31.715Z,501.0000
2023-05-23T00:04:39.889Z,507.7857
2023-05-23T00:05:47.911Z,511.0714
2023-05-23T00:06:56.075Z,507.3571
2023-05-23T00:08:03.752Z,506.4286
2023-05-23T00:09:11.996Z,522.0000
2023-05-23T00:10:19.874Z,527.1429
2023-05-23T00:11:28.308Z,534.7143
2023-05-23T00:12:36.148Z,538.5714
2023-05-23T00:13:44.212Z,519.4286
2023-05-23T00:14:52.235Z,522.3571
2023-05-23T00:16:00.478Z,520.0000
2023-05-23T00:17:08.504Z,508.3571
2023-05-23T00:18:16.465Z,502.5714
2023-05-23T00:19:24.414Z,495.9286
2023-05-23T00:20:32.550Z,487.5714
2023-05-23T00:21:40.714Z,500.8571
2023-05-23T00:22:48.729Z,493.9286
2023-05-23T00:23:56.741Z,493.5714
2023-05-23T00:25:04.920Z,499.2857
2023-05-23T00:26:12.888Z,505.9286
2023-05-23T00:27:20.909Z,502.2143
2023-05-23T00:28:29.020Z,494.9286
2023-05-23T00:29:37.109Z,482.8571
2023-05-23T00:30:45.065Z,478.0000
2023-05-23T00:31:53.311Z,483.4286
2023-05-23T00:33:01.506Z,482.7143
2023-05-23T00:34:09.249Z,479.4286
2023-05-23T00:35:17.398Z,474.0714
2023-05-23T00:36:25.392Z,476.7143
2023-05-23T00:37:33.610Z,471.9286
2023-05-23T00:38:41.731Z,462.6429
2023-05-23T00:39:49.675Z,461.8571
2023-05-23T00:40:57.735Z,454.0000
2023-05-23T00:42:05.727Z,449.1429
2023-05-23T00:43:14.003Z,462.5000
2023-05-23T00:44:22.560Z,470.8571
2023-05-23T00:45:29.993Z,459.0714
2023-05-23T00:46:38.339Z,454.0000
2023-05-23T00:47:46.151Z,451.7143
2023-05-23T00:48:54.192Z,443.5000
2023-05-23T00:50:02.241Z,443.2143
2023-05-23T00:51:10.445Z,436.7143
2023-05-23T00:52:18.410Z,436.8571
2023-05-23T00:53:26.674Z,445.2143
2023-05-23T00:54:34.460Z,442.7857
2023-05-23T00:55:42.689Z,433.0000
2023-05-23T00:56:50.641Z,428.9286
2023-05-23T00:57:58.692Z,427.8571
2023-05-23T00:59:06.623Z,430.9286
2023-05-23T01:00:14.775Z,429.5000
2023-05-23T01:01:23.044Z,422.2143
2023-05-23T01:02:30.977Z,422.6429
2023-05-23T01:03:39.153Z,421.4286
2023-05-23T01:04:46.882Z,426.5714
2023-05-23T01:05:55.187Z,430.1429
2023-05-23T01:07:03.216Z,426.1429
2023-05-23T01:08:11.243Z,425.6429
2023-05-23T01:09:19.300Z,419.1429
2023-05-23T01:10:27.451Z,416.9286
2023-05-23T01:11:35.438Z,428.0714
2023-05-23T01:12:43.486Z,422.2143
2023-05-23T01:13:51.503Z,417.9286
2023-05-23T01:14:59.567Z,429.8571
2023-05-23T01:16:07.655Z,448.6429
2023-05-23T01:17:15.649Z,440.4286
2023-05-23T01:18:23.766Z,431.2143
2023-05-23T01:19:31.683Z,436.4286
2023-05-23T01:20:39.855Z,434.7857
2023-05-23T01:21:47.936Z,427.9286
2023-05-23T01:22:55.895Z,421.3571
2023-05-23T01:24:04.051Z,415.5000
2023-05-23T01:25:12.057Z,420.5714
2023-05-23T01:26:20.323Z,420.9286
2023-05-23T01:27:28.222Z,419.1429
2023-05-23T01:28:36.362Z,422.4286
2023-05-23T01:29:44.391Z,415.0000
2023-05-23T01:30:52.442Z,415.6429
2023-05-23T01:32:00.497Z,418.5714
2023-05-23T01:33:08.592Z,419.2857
2023-05-23T01:34:16.478Z,421.3571
2023-05-23T01:35:24.688Z,419.8571
2023-05-23T01:36:32.715Z,427.8571
2023-05-23T01:37:40.761Z,430.0714
2023-05-23T01:38:49.036Z,427.2857
2023-05-23T01:39:56.774Z,424.5000
2023-05-23T01:41:05.046Z,425.2857
2023-05-23T01:42:13.072Z,423.1429
2023-05-23T01:43:21.051Z,418.0714
2023-05-23T01:44:29.268Z,410.9286
2023-05-23T01:45:37.207Z,405.2857
2023-05-23T01:46:45.240Z,402.5000
2023-05-23T01:47:53.379Z,413.5714
2023-05-23T01:49:01.522Z,426.2143
2023-05-23T01:50:09.392Z,421.7857
2023-05-23T01:51:17.354Z,422.7857
2023-05-23T01:52:25.534Z,426.5714
2023-05-23T01:53:33.603Z,425.0714
2023-05-23T01:54:41.941Z,430.5000
2023-05-23T01:55:49.724Z,432.4286
2023-05-23T01:56:57.699Z,435.3571
2023-05-23T01:58:05.798Z,428.5000
2023-05-23T01:59:13.864Z,429.5000
2023-05-23T02:00:22.005Z,429.0714
2023-05-23T02:01:30.048Z,424.7143
2023-05-23T02:02:38.230Z,432.8571
2023-05-23T02:03:46.136Z,427.7143
2023-05-23T02:04:54.248Z,426.0714
2023-05-23T02:06:02.310Z,428.2857
2023-05-23T02:07:10.287Z,422.7857
2023-05-23T02:08:18.355Z,421.5714
2023-05-23T02:09:26.523Z,427.2857
2023-05-23T02:10:34.571Z,432.0714
2023-05-23T02:11:42.546Z,430.5714
2023-05-23T02:12:50.714Z,428.7857
2023-05-23T02:13:58.654Z,430.4286
2023-05-23T02:15:06.712Z,439.0714
2023-05-23T02:16:14.969Z,434.9286
2023-05-23T02:17:22.897Z,428.5000
2023-05-23T02:18:30.915Z,433.8571
2023-05-23T02:19:38.906Z,432.6429
2023-05-23T02:20:47.030Z,425.6429
2023-05-23T02:21:55.136Z,431.0000
2023-05-23T02:23:03.157Z,428.7143
2023-05-23T02:24:11.453Z,425.7857
2023-05-23T02:25:19.326Z,420.6429
2023-05-23T02:26:27.367Z,428.5714
2023-05-23T02:27:35.419Z,443.3571
2023-05-23T02:28:43.391Z,439.9286
2023-05-23T02:29:51.506Z,455.1429
2023-05-23T02:30:59.806Z,468.5714
2023-05-23T02:32:07.663Z,474.5714
2023-05-23T02:33:15.764Z,474.6429
2023-05-23T02:34:23.889Z,481.5714
2023-05-23T02:35:31.822Z,468.0714
2023-05-23T02:36:39.925Z,458.6429
2023-05-23T02:37:47.921Z,459.5000
2023-05-23T02:38:56.211Z,460.7857
2023-05-23T02:40:03.924Z,443.7143
2023-05-23T02:41:12.187Z,443.0714
2023-05-23T02:42:20.208Z,432.5714
2023-05-23T02:43:28.091Z,431.8571
2023-05-23T02:44:36.372Z,424.7857
2023-05-23T02:45:44.389Z,422.4286
2023-05-23T02:46:52.629Z,417.6429
2023-05-23T02:48:00.458Z,416.6429
2023-05-23T02:49:08.546Z,413.4286
2023-05-23T02:50:16.552Z,410.3571
2023-05-23T02:51:24.531Z,415.7857
2023-05-23T02:52:32.722Z,425.8571
2023-05-23T02:53:40.902Z,423.1429
2023-05-23T02:54:48.664Z,420.0714
2023-05-23T02:55:56.867Z,418.4286
2023-05-23T02:57:04.969Z,411.3571
2023-05-23T02:58:12.969Z,420.4286
2023-05-23T02:59:21.050Z,427.7857
2023-05-23T03:00:29.155Z,422.4286
2023-05-23T03:01:37.138Z,413.5000
2023-05-23T03:02:45.472Z,415.4286
2023-05-23T03:03:53.256Z,421.2857
2023-05-23T03:05:01.308Z,434.0000
2023-05-23T03:06:09.256Z,433.4286
2023-05-23T03:07:27.486Z,425.4286
2023-05-23T03:08:30.351Z,429.2857
2023-05-23T03:09:38.394Z,429.9286
2023-05-23T03:10:46.464Z,424.3571
2023-05-23T03:11:54.643Z,420.5714
2023-05-23T03:13:02.635Z,436.5000
2023-05-23T03:14:10.634Z,432.7143
2023-05-23T03:15:18.712Z,438.5000
2023-05-23T03:16:26.862Z,450.5714
2023-05-23T03:17:34.697Z,456.4286
2023-05-23T03:18:42.925Z,455.0000
2023-05-23T03:19:50.955Z,461.7857
2023-05-23T03:20:59.009Z,464.7143
2023-05-23T03:22:07.207Z,471.0000
2023-05-23T03:23:15.146Z,472.0714
2023-05-23T03:24:23.185Z,483.5714
2023-05-23T03:25:31.263Z,498.6429
2023-05-23T03:26:39.285Z,491.8571
2023-05-23T03:27:47.321Z,486.7857
2023-05-23T03:28:55.463Z,491.8571
2023-05-23T03:30:03.704Z,492.1429
2023-05-23T03:31:11.601Z,500.0000
2023-05-23T03:32:19.660Z,503.5000
2023-05-23T03:33:27.631Z,490.8571
2023-05-23T03:34:35.714Z,491.7857
2023-05-23T03:35:43.734Z,483.3571
2023-05-23T03:36:51.808Z,495.2857
2023-05-23T03:37:59.701Z,510.7143
2023-05-23T03:39:07.968Z,506.1429
2023-05-23T03:40:16.019Z,527.2857
2023-05-23T03:41:24.022Z,539.6429
2023-05-23T03:42:32.159Z,530.2857
2023-05-23T03:43:40.023Z,536.1429
2023-05-23T03:44:48.447Z,546.2143
2023-05-23T03:45:56.369Z,553.6429
2023-05-23T03:47:04.366Z,555.0714
2023-05-23T03:48:12.474Z,550.5000
2023-05-23T03:49:20.289Z,542.8571
2023-05-23T03:50:28.731Z,530.1429
2023-05-23T03:51:36.551Z,531.2143
2023-05-23T03:52:44.491Z,529.2857
2023-05-23T03:53:52.684Z,539.2143
2023-05-23T03:55:00.632Z,548.5714
2023-05-23T03:56:08.777Z,555.9286
2023-05-23T03:57:16.851Z,550.7857
2023-05-23T03:58:24.757Z,553.8571
2023-05-23T03:59:32.965Z,545.9286
2023-05-23T04:00:41.356Z,541.4286
2023-05-23T04:01:49.078Z,548.1429
2023-05-23T04:02:57.198Z,544.4286
2023-05-23T04:04:05.377Z,532.2143
2023-05-23T04:05:13.482Z,526.5000
2023-05-23T04:06:21.309Z,529.7857
2023-05-23T04:07:29.409Z,529.2143
2023-05-23T04:08:37.515Z,538.5000
2023-05-23T04:09:45.681Z,545.9286
2023-05-23T04:10:53.564Z,553.5000
2023-05-23T04:12:01.608Z,562.7857
2023-05-23T04:13:09.700Z,582.4286
2023-05-23T04:14:18.027Z,603.7857
2023-05-23T04:15:25.942Z,606.4286
2023-05-23T04:16:33.949Z,604.5714
2023-05-23T04:17:41.917Z,599.8571
2023-05-23T04:18:50.106Z,599.1429
2023-05-23T04:19:58.091Z,606.1429
2023-05-23T04:21:06.090Z,607.6429
2023-05-23T04:22:14.107Z,602.2143
2023-05-23T04:23:22.215Z,619.7857
2023-05-23T04:24:30.254Z,615.9286
2023-05-23T04:25:38.396Z,627.6429
2023-05-23T04:26:46.598Z,633.5714
2023-05-23T04:27:54.418Z,621.1429
2023-05-23T04:29:02.581Z,618.0000
2023-05-23T04:30:10.517Z,609.2857
2023-05-23T04:31:18.683Z,611.7857
2023-05-23T04:32:26.554Z,605.9286
2023-05-23T04:33:35.140Z,600.0714
2023-05-23T04:34:42.762Z,587.5000
2023-05-23T04:35:50.965Z,596.5000
2023-05-23T04:36:58.971Z,592.0714
2023-05-23T04:38:06.960Z,598.9286
2023-05-23T04:39:14.938Z,607.2143
2023-05-23T04:40:23.114Z,606.2143
2023-05-23T04:41:31.287Z,630.5714
2023-05-23T04:42:39.228Z,658.0714
2023-05-23T04:43:47.286Z,671.2143
2023-05-23T04:44:55.216Z,676.5714
2023-05-23T04:46:03.414Z,676.1429
2023-05-23T04:47:11.563Z,681.9286
2023-05-23T04:48:19.717Z,689.3571
2023-05-23T04:49:27.578Z,677.9286
2023-05-23T04:50:35.496Z,675.5000
2023-05-23T04:51:43.836Z,656.5714
2023-05-23T04:52:51.761Z,652.9286
2023-05-23T04:53:59.792Z,652.2143
2023-05-23T04:55:07.908Z,652.6429
2023-05-23T04:56:15.827Z,658.6429
2023-05-23T04:57:23.996Z,654.0000
2023-05-23T04:58:31.918Z,641.8571
2023-05-23T04:59:40.151Z,639.2143
2023-05-23T05:00:48.224Z,638.5714
2023-05-23T05:01:56.297Z,639.5714
2023-05-23T05:03:04.313Z,643.5714
2023-05-23T05:04:12.402Z,640.1429
2023-05-23T05:05:20.408Z,638.2857
2023-05-23T05:06:28.557Z,641.9286
2023-05-23T05:07:36.634Z,629.5714
2023-05-23T05:08:44.583Z,635.4286
2023-05-23T05:09:52.709Z,651.5714
2023-05-23T05:11:00.612Z,647.5000
2023-05-23T05:12:08.830Z,648.1429
2023-05-23T05:13:16.882Z,632.2857
2023-05-23T05:14:24.874Z,631.3571
2023-05-23T05:15:32.929Z,626.9286
2023-05-23T05:16:40.912Z,622.8571
2023-05-23T05:17:49.960Z,617.6429
2023-05-23T05:18:57.009Z,627.3571
2023-05-23T05:20:05.197Z,631.8571
2023-05-23T05:21:13.365Z,638.7857
2023-05-23T05:22:21.300Z,638.1429
2023-05-23T05:23:29.421Z,644.5000
2023-05-23T05:24:37.259Z,656.9286
2023-05-23T05:25:45.436Z,679.5000
2023-05-23T05:26:53.500Z,707.5000
2023-05-23T05:28:01.478Z,714.7857
2023-05-23T05:29:09.968Z,728.0000
2023-05-23T05:30:17.551Z,743.0714
2023-05-23T05:31:25.816Z,751.1429
2023-05-23T05:32:33.890Z,757.5000
2023-05-23T05:33:41.842Z,766.8571
2023-05-23T05:34:49.980Z,761.7143
2023-05-23T05:35:57.946Z,771.4286
2023-05-23T05:37:06.045Z,779.7857
2023-05-23T05:38:14.534Z,769.7143
2023-05-23T05:39:22.357Z,758.0714
2023-05-23T05:40:30.188Z,748.2857
2023-05-23T05:41:38.279Z,742.0000
2023-05-23T05:42:46.381Z,736.0000
2023-05-23T05:43:54.384Z,732.8571
2023-05-23T05:45:02.318Z,744.7143
2023-05-23T05:46:10.535Z,743.8571
2023-05-23T05:47:18.722Z,743.1429
2023-05-23T05:48:26.722Z,736.7143
2023-05-23T05:49:34.679Z,738.1429
2023-05-23T05:50:42.727Z,729.0000
2023-05-23T05:51:50.827Z,721.7857
2023-05-23T05:52:58.887Z,717.5714
2023-05-23T05:54:06.918Z,714.7143
2023-05-23T05:55:15.016Z,713.7857
2023-05-23T05:56:23.145Z,699.7143
2023-05-23T05:57:31.304Z,689.4286
2023-05-23T05:58:39.146Z,677.6429
2023-05-23T05:59:47.049Z,688.0000
2023-05-23T06:00:55.236Z,680.8571
2023-05-23T06:02:03.172Z,689.1429
2023-05-23T06:03:11.513Z,674.7857
2023-05-23T06:04:19.476Z,676.7143
2023-05-23T06:05:27.481Z,677.9286
2023-05-23T06:06:35.732Z,689.1429
2023-05-23T06:07:43.572Z,695.2143
2023-05-23T06:08:51.637Z,707.0714
2023-05-23T06:09:59.808Z,688.7857
2023-05-23T06:11:07.870Z,696.0714
2023-05-23T06:12:15.791Z,688.2143
2023-05-23T06:13:23.941Z,701.4286
2023-05-23T06:14:32.010Z,709.3571
2023-05-23T06:15:39.983Z,704.5714
2023-05-23T06:16:48.131Z,696.5714
2023-05-23T06:17:56.259Z,679.8571
2023-05-23T06:19:04.248Z,681.5714
2023-05-23T06:20:12.248Z,670.9286
2023-05-23T06:21:20.297Z,687.0000
2023-05-23T06:22:28.169Z,695.2857
2023-05-23T06:23:36.449Z,705.5714
2023-05-23T06:24:44.460Z,721.1429
2023-05-23T06:25:52.628Z,733.5714
2023-05-23T06:27:00.628Z,735.3571
2023-05-23T06:28:08.631Z,741.0714
2023-05-23T06:29:16.725Z,736.0714
2023-05-23T06:30:24.761Z,735.6429
2023-05-23T06:31:32.818Z,735.0714
2023-05-23T06:32:40.953Z,736.7143
2023-05-23T06:33:48.828Z,754.2143
2023-05-23T06:34:57.026Z,761.8571
2023-05-23T06:36:05.048Z,758.0000
2023-05-23T06:37:13.103Z,754.5714
2023-05-23T06:38:21.189Z,748.2857
2023-05-23T06:39:29.278Z,747.0714
2023-05-23T06:40:37.266Z,763.7857
2023-05-23T06:41:45.351Z,764.8571
2023-05-23T06:42:53.428Z,763.0000
2023-05-23T06:44:01.467Z,769.0000
2023-05-23T06:45:09.534Z,768.9286
2023-05-23T06:46:17.490Z,756.8571
2023-05-23T06:47:25.867Z,745.1429
2023-05-23T06:48:33.571Z,729.2143
2023-05-23T06:49:41.873Z,717.2857
2023-05-23T06:50:49.823Z,727.6429
2023-05-23T06:51:57.913Z,720.4286
2023-05-23T06:53:06.047Z,713.1429
2023-05-23T06:54:13.892Z,707.0000
2023-05-23T06:55:22.086Z,703.5000
2023-05-23T06:56:30.133Z,692.6429
2023-05-23T06:57:38.170Z,687.7857
2023-05-23T06:58:47.249Z,676.5714
2023-05-23T06:59:54.201Z,677.5714
2023-05-23T07:01:02.397Z,671.4286
2023-05-23T07:02:10.435Z,678.0714
2023-05-23T07:03:18.522Z,677.2143
2023-05-23T07:04:26.560Z,670.7857
2023-05-23T07:05:34.708Z,666.0714
2023-05-23T07:06:42.847Z,676.0000
2023-05-23T07:07:50.740Z,675.7143
2023-05-23T07:08:58.761Z,666.7143
2023-05-23T07:10:06.876Z,664.2857
2023-05-23T07:11:15.018Z,672.0714
2023-05-23T07:12:23.000Z,684.2857
2023-05-23T07:13:31.075Z,677.5000
2023-05-23T07:14:39.248Z,685.2857
2023-05-23T07:15:47.329Z,690.0000
2023-05-23T07:16:55.310Z,687.6429
2023-05-23T07:18:03.289Z,697.2143
2023-05-23T07:19:11.401Z,718.2857
2023-05-23T07:20:19.401Z,723.5714
2023-05-23T07:21:27.512Z,725.7143
2023-05-23T07:22:35.381Z,731.5714
2023-05-23T07:23:43.456Z,730.7143
2023-05-23T07:24:51.629Z,731.8571
2023-05-23T07:26:02.963Z,726.0714
2023-05-23T07:27:12.631Z,718.5333
2023-05-23T07:28:20.675Z,719.4286
2023-05-23T07:29:28.767Z,714.3571
2023-05-23T07:30:36.873Z,715.7143
2023-05-23T07:31:44.949Z,716.6429
2023-05-23T07:32:53.077Z,715.5714
2023-05-23T07:34:01.018Z,727.2143
2023-05-23T07:35:09.041Z,744.3571
2023-05-23T07:36:17.141Z,744.0714
2023-05-23T07:37:25.202Z,740.0714
2023-05-23T07:38:33.101Z,736.6429
2023-05-23T07:39:41.440Z,736.0714
2023-05-23T07:40:58.844Z,736.9286
2023-05-23T07:42:02.470Z,722.2857
2023-05-23T07:43:10.335Z,712.3571
2023-05-23T07:44:18.388Z,711.4286
2023-05-23T07:45:26.429Z,712.4286
2023-05-23T07:46:34.389Z,701.2143
2023-05-23T07:47:42.828Z,697.2857
2023-05-23T07:48:50.635Z,686.2857
2023-05-23T07:49:58.646Z,688.9286
2023-05-23T07:51:06.816Z,682.9286
2023-05-23T07:52:14.919Z,685.9286
2023-05-23T07:53:22.930Z,691.3571
2023-05-23T07:54:30.938Z,687.7143
2023-05-23T07:55:38.989Z,684.5000
2023-05-23T07:56:47.175Z,687.7143
2023-05-23T07:57:55.103Z,684.2857
2023-05-23T07:59:03.185Z,692.5714
2023-05-23T08:00:11.306Z,696.0000
2023-05-23T08:01:19.325Z,681.6429
2023-05-23T08:02:27.420Z,679.3571
2023-05-23T08:03:35.374Z,699.7857
2023-05-23T08:04:43.492Z,698.0000
2023-05-23T08:05:51.542Z,690.0000
2023-05-23T08:07:05.485Z,687.3571
2023-05-23T08:08:12.546Z,699.2667
2023-05-23T08:09:20.754Z,703.5000
2023-05-23T08:10:28.479Z,694.1429
2023-05-23T08:11:36.798Z,694.0000
2023-05-23T08:12:44.713Z,690.6429
2023-05-23T08:13:52.976Z,698.6429
2023-05-23T08:15:00.863Z,685.9286
2023-05-23T08:16:08.944Z,697.8571
2023-05-23T08:17:17.050Z,702.3571
2023-05-23T08:18:25.045Z,703.6429
2023-05-23T08:19:33.290Z,706.9286
2023-05-23T08:20:41.390Z,708.2857
2023-05-23T08:21:49.070Z,699.8571
2023-05-23T08:22:57.534Z,696.5000
2023-05-23T08:24:05.343Z,690.2857
2023-05-23T08:25:13.375Z,692.8571
2023-05-23T08:26:21.490Z,688.0000
2023-05-23T08:27:29.379Z,689.4286
2023-05-23T08:28:37.581Z,695.4286
2023-05-23T08:29:45.668Z,701.2143
2023-05-23T08:30:53.714Z,703.5000
2023-05-23T08:32:01.830Z,713.5000
2023-05-23T08:33:09.691Z,714.5000
2023-05-23T08:34:17.893Z,719.3571
2023-05-23T08:35:25.939Z,721.3571
2023-05-23T08:36:33.986Z,727.1429
2023-05-23T08:37:42.238Z,722.2857
2023-05-23T08:38:50.010Z,734.1429
2023-05-23T08:39:58.170Z,744.0000
2023-05-23T08:41:06.196Z,748.2143
2023-05-23T08:42:14.614Z,756.6429
2023-05-23T08:43:22.390Z,763.0714
2023-05-23T08:44:30.476Z,783.2143
2023-05-23T08:45:38.509Z,792.5714
2023-05-23T08:46:46.704Z,793.8571
2023-05-23T08:47:54.750Z,787.3571
2023-05-23T08:49:02.785Z,782.4286
2023-05-23T08:50:10.987Z,774.4286
2023-05-23T08:51:18.907Z,766.0000
2023-05-23T08:52:27.009Z,766.4286
2023-05-23T08:53:34.824Z,764.6429
2023-05-23T08:54:43.040Z,765.4286
2023-05-23T08:55:51.113Z,758.9286
2023-05-23T08:56:59.008Z,756.6429
2023-05-23T08:58:07.215Z,757.8571
2023-05-23T08:59:15.140Z,767.6429
2023-05-23T09:00:23.435Z,762.0000
2023-05-23T09:01:31.642Z,766.4286
2023-05-23T09:02:39.494Z,761.9286
2023-05-23T09:03:47.486Z,759.8571
2023-05-23T09:04:55.431Z,751.8571
2023-05-23T09:06:03.733Z,765.0000
2023-05-23T09:07:11.929Z,772.7857
2023-05-23T09:08:19.752Z,775.6429
2023-05-23T09:09:27.794Z,775.5714
2023-05-23T09:10:35.924Z,782.4286
2023-05-23T09:11:43.936Z,787.0000
2023-05-23T09:12:51.975Z,794.8571
2023-05-23T09:13:59.934Z,791.2143
2023-05-23T09:15:08.107Z,780.6429
2023-05-23T09:16:16.052Z,790.5000
2023-05-23T09:17:24.383Z,803.0714
2023-05-23T09:18:32.332Z,801.4286
2023-05-23T09:19:40.413Z,791.7143
2023-05-23T09:20:48.429Z,789.2857
2023-05-23T09:21:56.487Z,788.3571
2023-05-23T09:23:04.552Z,787.1429
2023-05-23T09:24:12.847Z,787.9286
2023-05-23T09:25:20.507Z,785.8571
2023-05-23T09:26:28.750Z,785.0000
2023-05-23T09:27:36.770Z,782.0714
2023-05-23T09:28:44.756Z,786.2143
2023-05-23T09:29:52.902Z,767.3571
2023-05-23T09:31:01.068Z,756.7857
2023-05-23T09:32:09.300Z,759.6429
2023-05-23T09:33:17.183Z,775.0000
2023-05-23T09:34:25.142Z,775.8571
2023-05-23T09:35:33.177Z,783.0714
2023-05-23T09:36:41.157Z,793.1429
2023-05-23T09:37:49.333Z,791.2857
2023-05-23T09:38:57.415Z,789.4286
2023-05-23T09:40:05.564Z,793.0714
2023-05-23T09:41:13.496Z,790.2143
2023-05-23T09:42:21.437Z,772.1429
2023-05-23T09:43:29.747Z,776.7857
2023-05-23T09:44:37.698Z,777.9286
2023-05-23T09:45:45.796Z,767.5714
2023-05-23T09:46:53.963Z,772.3571
2023-05-23T09:48:01.895Z,779.7857
2023-05-23T09:49:10.088Z,775.6429
2023-05-23T09:50:18.048Z,782.9286
2023-05-23T09:51:26.046Z,773.5000
2023-05-23T09:52:34.076Z,777.0714
2023-05-23T09:53:42.273Z,776.3571
2023-05-23T09:54:50.096Z,773.4286
2023-05-23T09:55:58.259Z,772.2857
2023-05-23T09:57:07.181Z,778.8571
2023-05-23T09:58:14.427Z,805.5714
2023-05-23T09:59:22.517Z,825.1429
2023-05-23T10:00:30.391Z,854.8571
2023-05-23T10:01:38.812Z,890.7143
2023-05-23T10:02:46.607Z,925.8571
2023-05-23T10:03:55.567Z,958.5000
2023-05-23T10:05:02.807Z,986.2143
2023-05-23T10:06:10.701Z,986.8571
2023-05-23T10:07:18.908Z,995.4286
2023-05-23T10:08:26.807Z,1037.2142
2023-05-23T10:09:35.264Z,1073.7858
2023-05-23T10:10:43.245Z,1108.2142
2023-05-23T10:11:51.147Z,1126.3572
2023-05-23T10:12:59.254Z,1153.9286
2023-05-23T10:14:07.237Z,1180.7858
2023-05-23T10:15:15.397Z,1202.0714
2023-05-23T10:16:23.424Z,1178.0714
2023-05-23T10:17:31.488Z,1172.7142
2023-05-23T10:18:39.729Z,1157.2858
2023-05-23T10:19:47.601Z,1173.0000
2023-05-23T10:20:55.806Z,1161.7858
2023-05-23T10:22:03.752Z,1174.0714
2023-05-23T10:23:11.907Z,1195.9286
2023-05-23T10:24:19.904Z,1217.6428
2023-05-23T10:25:27.932Z,1253.0714
2023-05-23T10:26:35.909Z,1279.7142
2023-05-23T10:27:44.311Z,1301.1428
2023-05-23T10:28:52.235Z,1310.8572
2023-05-23T10:30:00.221Z,1320.7858
2023-05-23T10:31:08.325Z,1335.2858
2023-05-23T10:32:16.404Z,1321.7142
2023-05-23T10:33:24.379Z,1310.0714
2023-05-23T10:34:32.355Z,1305.8572
2023-05-23T10:35:40.578Z,1317.7142
2023-05-23T10:36:48.631Z,1323.0000
2023-05-23T10:37:56.519Z,1332.2858
2023-05-23T10:39:04.716Z,1348.5000
2023-05-23T10:40:12.659Z,1326.1428
2023-05-23T10:41:20.833Z,1327.0714
2023-05-23T10:42:28.971Z,1281.8572
2023-05-23T10:43:36.864Z,1217.7142
2023-05-23T10:44:45.132Z,1159.5000
2023-05-23T10:45:53.002Z,1123.7142
2023-05-23T10:47:01.273Z,1077.3572
2023-05-23T10:48:09.283Z,1019.2143
2023-05-23T10:49:17.300Z,977.7143
2023-05-23T10:50:25.371Z,948.1429
2023-05-23T10:51:33.454Z,920.2143
2023-05-23T10:52:41.554Z,912.5714
2023-05-23T10:53:49.579Z,924.9286
2023-05-23T10:54:57.676Z,910.7143
2023-05-23T10:56:05.747Z,876.4286
2023-05-23T10:57:13.760Z,854.7143
2023-05-23T10:58:21.762Z,843.6429
2023-05-23T10:59:29.964Z,842.7857
2023-05-23T11:00:37.987Z,836.3571
2023-05-23T11:01:46.006Z,823.9286
2023-05-23T11:02:54.155Z,813.7857
2023-05-23T11:04:02.306Z,815.2143
2023-05-23T11:05:10.194Z,848.4286
2023-05-23T11:06:18.254Z,890.7857
2023-05-23T11:07:26.499Z,935.7857
2023-05-23T11:08:46.715Z,963.7143
2023-05-23T11:09:47.277Z,996.2143
2023-05-23T11:10:55.330Z,1038.0714
2023-05-23T11:12:03.439Z,1073.2142
2023-05-23T11:13:11.634Z,1071.7858
2023-05-23T11:14:19.845Z,1071.8572
2023-05-23T11:15:27.584Z,1067.0000
2023-05-23T11:16:35.669Z,1061.7858
2023-05-23T11:17:43.917Z,1029.7858
2023-05-23T11:18:51.747Z,1000.8571
2023-05-23T11:19:59.889Z,981.0714
2023-05-23T11:21:07.936Z,976.2857
2023-05-23T11:22:16.061Z,950.9286
2023-05-23T11:23:24.083Z,951.5714
2023-05-23T11:24:32.205Z,940.5714
2023-05-23T11:25:40.290Z,907.9286
2023-05-23T11:26:48.179Z,896.2857
2023-05-23T11:27:56.248Z,865.0714
2023-05-23T11:29:04.471Z,828.0714
2023-05-23T11:30:12.716Z,814.6429
2023-05-23T11:31:20.619Z,814.8571
2023-05-23T11:32:28.787Z,842.2143
2023-05-23T11:33:36.699Z,885.9286
2023-05-23T11:34:44.815Z,871.7143
2023-05-23T11:35:52.698Z,880.7143
2023-05-23T11:37:00.844Z,888.0714
2023-05-23T11:38:09.059Z,893.7143
2023-05-23T11:39:17.000Z,893.0000
2023-05-23T11:40:25.120Z,890.1429
2023-05-23T11:41:33.170Z,883.7857
2023-05-23T11:42:41.217Z,881.6429
2023-05-23T11:43:49.246Z,873.3571
2023-05-23T11:44:57.463Z,876.9286
2023-05-23T11:46:05.467Z,880.4286
2023-05-23T11:47:13.448Z,872.9286
2023-05-23T11:48:21.512Z,880.0714
2023-05-23T11:49:29.717Z,872.3571
2023-05-23T11:50:37.559Z,866.1429
2023-05-23T11:51:45.740Z,863.6429
2023-05-23T11:52:53.809Z,851.7857
2023-05-23T11:54:01.926Z,832.3571
2023-05-23T11:55:09.801Z,827.0000
2023-05-23T11:56:18.101Z,821.5000
2023-05-23T11:57:26.140Z,819.0000
2023-05-23T11:58:34.149Z,812.9286
2023-05-23T11:59:42.261Z,805.5714
2023-05-23T12:00:50.798Z,797.7857
2023-05-23T12:01:58.341Z,771.4286
2023-05-23T12:03:06.483Z,753.2857
2023-05-23T12:04:14.514Z,753.9286
2023-05-23T12:05:22.618Z,758.3571
2023-05-23T12:06:30.606Z,752.5714
2023-05-23T12:07:38.651Z,756.0714
2023-05-23T12:08:46.702Z,759.4286
2023-05-23T12:09:54.800Z,759.4286
2023-05-23T12:11:02.904Z,759.3571
2023-05-23T12:12:11.039Z,764.7143
2023-05-23T12:13:18.935Z,771.4286
2023-05-23T12:14:27.207Z,786.0000
2023-05-23T12:15:35.080Z,801.8571
2023-05-23T12:16:43.274Z,809.8571
2023-05-23T12:17:51.234Z,818.9286
2023-05-23T12:18:59.229Z,835.0714
2023-05-23T12:20:07.352Z,834.6429
2023-05-23T12:21:15.384Z,828.1429
2023-05-23T12:22:23.358Z,826.5000
2023-05-23T12:23:34.503Z,824.6429
2023-05-23T12:24:44.304Z,823.8666
2023-05-23T12:25:52.562Z,822.3571
2023-05-23T12:27:00.556Z,818.0714
2023-05-23T12:28:08.601Z,820.2143
2023-05-23T12:29:16.559Z,810.7857
2023-05-23T12:30:24.680Z,802.5000
2023-05-23T12:31:32.986Z,804.0714
2023-05-23T12:32:41.191Z,797.0000
2023-05-23T12:33:49.792Z,794.9286
2023-05-23T12:34:57.122Z,797.3571
2023-05-23T12:36:05.299Z,805.6429
2023-05-23T12:37:19.428Z,795.3571
2023-05-23T12:38:26.089Z,806.1429
2023-05-23T12:39:34.003Z,801.2857
2023-05-23T12:40:42.160Z,801.8571
2023-05-23T12:41:50.277Z,789.1429
2023-05-23T12:42:58.165Z,792.4286
2023-05-23T12:44:06.358Z,791.2857
2023-05-23T12:45:14.639Z,791.4286
2023-05-23T12:46:22.745Z,788.5000
2023-05-23T12:47:30.671Z,813.0000
2023-05-23T12:48:38.565Z,842.7857
2023-05-23T12:49:46.668Z,886.6429
2023-05-23T12:50:54.644Z,929.4286
2023-05-23T12:52:02.778Z,982.6429
2023-05-23T12:53:10.958Z,1027.9286
2023-05-23T12:54:19.089Z,1047.7142
2023-05-23T12:55:27.029Z,1034.2858
2023-05-23T12:56:35.048Z,1019.7857
2023-05-23T12:57:43.193Z,1004.5000
2023-05-23T12:58:51.321Z,976.6429
2023-05-23T12:59:59.337Z,956.0714
2023-05-23T13:01:07.430Z,946.2857
2023-05-23T13:02:15.506Z,941.7857
2023-05-23T13:03:23.760Z,946.7143
2023-05-23T13:04:32.615Z,950.5714
2023-05-23T13:05:40.235Z,940.8571
2023-05-23T13:06:47.732Z,940.6429
2023-05-23T13:07:55.766Z,951.5714
2023-05-23T13:09:03.707Z,980.1429
2023-05-23T13:10:12.028Z,998.0000
2023-05-23T13:11:19.890Z,997.8571
2023-05-23T13:12:28.106Z,985.3571
2023-05-23T13:13:36.237Z,976.9286
2023-05-23T13:14:44.255Z,975.2857
2023-05-23T13:15:52.323Z,965.7143
2023-05-23T13:17:00.745Z,947.6429